Time;durP1;ratioP1;P1;durP2;ratioP2;P2;SDS_P1;SDS_P2;PMS_P1;PMS_P2;Temp;Humidity;BMP_temperature;BMP_pressure;BME280_temperature;BME280_humidity;BME280_pressure;Samples;Min_cycle;Max_cycle;Signal;HPM_P1;HPM_P2
2023/01/25 00:01:06;;;;;;;21.20;9.95;;;;;;;;;;4954576;28;20100;-72
2023/01/25 00:03:33;;;;;;;21.60;9.48;;;;;;;;;;4978293;28;20063;-71
2023/01/25 00:06:00;;;;;;;22.90;9.43;;;;;;;;;;4995698;28;20069;-69
2023/01/25 00:08:27;;;;;;;22.75;9.48;;;;;;;;;;4972230;28;20059;-70
2023/01/25 00:10:55;;;;;;;22.58;9.75;;;;;;;;;;5014473;28;20052;-72
2023/01/25 00:13:21;;;;;;;23.67;10.38;;;;;;;;;;5000993;28;20056;-70
2023/01/25 00:15:51;;;;;;;22.83;10.18;;;;;;;;;;4999458;28;20053;-71
2023/01/25 00:18:22;;;;;;;22.65;10.82;;;;;;;;;;5025095;28;20065;-73
2023/01/25 00:20:49;;;;;;;25.52;10.25;;;;;;;;;;5042864;28;20052;-71
2023/01/25 00:23:16;;;;;;;23.02;9.57;;;;;;;;;;5010782;28;20076;-70
2023/01/25 00:25:43;;;;;;;25.88;10.00;;;;;;;;;;4994655;28;20053;-69
2023/01/25 00:28:09;;;;;;;24.15;10.68;;;;;;;;;;5002410;28;20054;-69
2023/01/25 00:30:36;;;;;;;22.13;9.82;;;;;;;;;;5020071;28;20057;-70
2023/01/25 00:33:07;;;;;;;24.33;10.85;;;;;;;;;;5001502;28;20076;-71
2023/01/25 00:35:35;;;;;;;25.02;10.40;;;;;;;;;;4976330;28;20131;-71
2023/01/25 00:38:02;;;;;;;21.80;10.43;;;;;;;;;;4987538;28;20116;-69
2023/01/25 00:40:29;;;;;;;24.17;11.00;;;;;;;;;;4971624;28;20061;-71
2023/01/25 00:42:56;;;;;;;24.50;10.13;;;;;;;;;;4995031;28;20065;-71
2023/01/25 00:45:23;;;;;;;22.08;10.68;;;;;;;;;;4965292;28;20131;-70
2023/01/25 00:47:50;;;;;;;21.60;10.10;;;;;;;;;;4950591;28;20140;-72
2023/01/25 00:50:16;;;;;;;22.00;10.18;;;;;;;;;;4966711;28;20141;-73
2023/01/25 00:52:45;;;;;;;22.65;11.20;;;;;;;;;;5011984;28;20057;-69
2023/01/25 00:55:12;;;;;;;26.33;10.13;;;;;;;;;;4975852;28;20121;-74
2023/01/25 00:57:39;;;;;;;24.05;10.25;;;;;;;;;;4874992;28;20066;-71
2023/01/25 01:00:07;;;;;;;25.55;11.30;;;;;;;;;;4906607;28;20138;-72
2023/01/25 01:02:33;;;;;;;23.77;10.52;;;;;;;;;;4934419;28;20054;-74
2023/01/25 01:05:00;;;;;;;25.15;10.10;;;;;;;;;;4930712;28;20046;-72
2023/01/25 01:07:27;;;;;;;23.38;10.35;;;;;;;;;;4930474;28;20054;-71
2023/01/25 01:09:56;;;;;;;24.83;10.35;;;;;;;;;;4949008;28;20059;-70
2023/01/25 01:12:22;;;;;;;23.23;10.55;;;;;;;;;;4998449;28;20053;-72
2023/01/25 01:14:49;;;;;;;23.45;10.23;;;;;;;;;;5004634;28;20049;-73
2023/01/25 01:17:16;;;;;;;24.42;10.80;;;;;;;;;;4910000;28;20051;-72
2023/01/25 01:19:43;;;;;;;25.60;10.82;;;;;;;;;;4912008;28;20163;-72
2023/01/25 01:22:10;;;;;;;23.02;10.50;;;;;;;;;;4950927;28;20058;-71
2023/01/25 01:24:37;;;;;;;27.27;11.73;;;;;;;;;;4980634;28;20059;-70
2023/01/25 01:27:06;;;;;;;25.33;10.65;;;;;;;;;;4966164;28;20054;-71
2023/01/25 01:29:33;;;;;;;22.75;10.57;;;;;;;;;;4966873;28;20064;-73
2023/01/25 01:32:00;;;;;;;22.75;10.52;;;;;;;;;;4981985;28;20136;-69
2023/01/25 01:34:27;;;;;;;24.70;11.05;;;;;;;;;;5006605;28;20065;-70
2023/01/25 01:36:54;;;;;;;24.45;10.65;;;;;;;;;;4961332;28;20056;-73
2023/01/25 01:39:23;;;;;;;25.48;10.40;;;;;;;;;;4962309;28;20231;-69
2023/01/25 01:41:50;;;;;;;25.92;10.60;;;;;;;;;;5006511;28;20089;-73
2023/01/25 01:44:21;;;;;;;24.48;11.68;;;;;;;;;;5012027;28;20222;-74
2023/01/25 01:46:51;;;;;;;25.08;10.82;;;;;;;;;;5003078;28;20064;-71
2023/01/25 01:49:20;;;;;;;25.80;11.27;;;;;;;;;;4976395;28;20062;-70
2023/01/25 01:51:50;;;;;;;25.27;11.80;;;;;;;;;;4971803;28;20140;-71
2023/01/25 01:54:20;;;;;;;25.73;11.05;;;;;;;;;;4995032;28;20057;-73
2023/01/25 01:56:51;;;;;;;21.92;10.75;;;;;;;;;;4983019;28;20121;-72
2023/01/25 01:59:21;;;;;;;25.05;10.88;;;;;;;;;;4984250;28;20072;-70
2023/01/25 02:01:48;;;;;;;23.83;11.13;;;;;;;;;;5005728;28;20068;-71
2023/01/25 02:04:15;;;;;;;26.90;11.00;;;;;;;;;;5013946;28;20061;-71
2023/01/25 02:06:46;;;;;;;24.08;11.35;;;;;;;;;;5001668;28;20115;-72
2023/01/25 02:09:14;;;;;;;28.95;11.70;;;;;;;;;;4981730;28;20050;-73
2023/01/25 02:11:42;;;;;;;26.58;11.07;;;;;;;;;;5018734;28;20060;-72
2023/01/25 02:14:09;;;;;;;28.75;12.02;;;;;;;;;;4929313;28;20051;-70
2023/01/25 02:16:38;;;;;;;26.00;10.07;;;;;;;;;;4917200;28;20062;-74
2023/01/25 02:19:06;;;;;;;24.80;10.73;;;;;;;;;;4926875;28;20061;-72
2023/01/25 02:21:39;;;;;;;25.95;11.88;;;;;;;;;;4980957;28;20113;-73
2023/01/25 02:24:09;;;;;;;26.02;10.88;;;;;;;;;;4957173;28;20089;-71
2023/01/25 02:26:37;;;;;;;23.73;10.63;;;;;;;;;;4939809;28;20061;-70
2023/01/25 02:29:05;;;;;;;26.88;10.85;;;;;;;;;;4981366;28;20123;-73
2023/01/25 02:31:32;;;;;;;25.42;10.02;;;;;;;;;;5006367;28;20049;-70
2023/01/25 02:33:59;;;;;;;24.30;11.35;;;;;;;;;;5013901;28;20064;-72
2023/01/25 02:36:27;;;;;;;24.45;11.27;;;;;;;;;;4975951;28;20060;-72
2023/01/25 02:38:55;;;;;;;23.85;10.88;;;;;;;;;;4970805;28;20060;-71
2023/01/25 02:41:25;;;;;;;23.60;10.52;;;;;;;;;;5003597;28;20077;-70
2023/01/25 02:43:53;;;;;;;22.92;11.38;;;;;;;;;;4953054;28;20061;-70
2023/01/25 02:46:24;;;;;;;26.90;11.07;;;;;;;;;;4992405;28;20048;-72
2023/01/25 02:48:51;;;;;;;26.67;11.23;;;;;;;;;;5007558;28;20061;-72
2023/01/25 02:51:18;;;;;;;26.95;10.93;;;;;;;;;;5024525;28;20056;-70
2023/01/25 02:53:45;;;;;;;23.55;11.13;;;;;;;;;;4988707;28;20366;-73
2023/01/25 02:56:12;;;;;;;25.02;11.20;;;;;;;;;;5001631;28;20451;-72
2023/01/25 02:58:38;;;;;;;23.30;11.10;;;;;;;;;;4984218;28;20057;-70
2023/01/25 03:01:07;;;;;;;24.48;11.05;;;;;;;;;;4949223;28;20063;-71
2023/01/25 03:03:34;;;;;;;27.02;11.75;;;;;;;;;;4985006;28;20073;-71
2023/01/25 03:06:01;;;;;;;24.38;11.13;;;;;;;;;;5010465;28;20053;-69
2023/01/25 03:08:28;;;;;;;25.95;11.95;;;;;;;;;;4999322;28;20057;-71
2023/01/25 03:10:56;;;;;;;25.30;12.00;;;;;;;;;;4969295;28;20154;-73
2023/01/25 03:13:23;;;;;;;24.90;11.82;;;;;;;;;;4971387;28;20070;-69
2023/01/25 03:15:50;;;;;;;25.48;11.00;;;;;;;;;;4984292;28;20107;-72
2023/01/25 03:18:19;;;;;;;24.30;10.80;;;;;;;;;;5001559;28;20376;-70
2023/01/25 03:20:46;;;;;;;23.33;11.00;;;;;;;;;;4981177;28;20056;-71
2023/01/25 03:23:12;;;;;;;24.40;10.90;;;;;;;;;;4990099;28;20052;-72
2023/01/25 03:25:39;;;;;;;26.17;11.50;;;;;;;;;;4988860;28;20054;-70
2023/01/25 03:28:06;;;;;;;24.10;11.35;;;;;;;;;;4959885;28;20054;-69
2023/01/25 03:30:33;;;;;;;22.05;10.45;;;;;;;;;;4995423;28;20141;-72
2023/01/25 03:33:00;;;;;;;26.08;11.38;;;;;;;;;;4984783;28;20064;-71
2023/01/25 03:35:31;;;;;;;25.67;11.10;;;;;;;;;;4969981;28;20137;-71
2023/01/25 03:37:58;;;;;;;25.25;11.50;;;;;;;;;;4975606;28;20062;-72
2023/01/25 03:40:25;;;;;;;23.60;10.77;;;;;;;;;;4985732;28;20061;-72
2023/01/25 03:42:52;;;;;;;23.70;11.43;;;;;;;;;;4959017;28;20074;-69
2023/01/25 03:45:19;;;;;;;24.70;10.50;;;;;;;;;;4967499;28;20053;-70
2023/01/25 03:47:46;;;;;;;24.00;11.57;;;;;;;;;;4983920;28;20158;-73
2023/01/25 03:50:12;;;;;;;26.48;11.30;;;;;;;;;;4976481;28;20060;-72
2023/01/25 03:52:44;;;;;;;24.52;10.93;;;;;;;;;;4960047;28;20064;-72
2023/01/25 03:55:10;;;;;;;24.75;11.38;;;;;;;;;;4962014;28;20088;-69
2023/01/25 03:57:38;;;;;;;24.35;11.48;;;;;;;;;;4968580;28;20104;-70
2023/01/25 04:00:11;;;;;;;28.48;11.48;;;;;;;;;;4986430;28;20141;-74
2023/01/25 04:02:38;;;;;;;21.98;11.00;;;;;;;;;;4939648;28;20073;-70
2023/01/25 04:05:08;;;;;;;24.05;10.82;;;;;;;;;;4918407;28;20194;-69
2023/01/25 04:07:35;;;;;;;24.00;11.35;;;;;;;;;;4888390;28;20149;-69
2023/01/25 04:10:04;;;;;;;26.55;12.00;;;;;;;;;;4981345;28;20169;-73
2023/01/25 04:12:31;;;;;;;25.20;10.65;;;;;;;;;;4981837;28;20136;-73
2023/01/25 04:14:58;;;;;;;26.75;11.57;;;;;;;;;;4977715;28;20061;-71
2023/01/25 04:17:26;;;;;;;22.58;11.05;;;;;;;;;;4993644;28;20101;-73
2023/01/25 04:19:53;;;;;;;23.60;11.05;;;;;;;;;;4971612;28;20057;-69
2023/01/25 04:22:19;;;;;;;25.00;11.15;;;;;;;;;;4940641;28;20065;-70
2023/01/25 04:24:46;;;;;;;21.77;10.60;;;;;;;;;;5007674;28;20074;-70
2023/01/25 04:27:14;;;;;;;28.05;11.70;;;;;;;;;;5031064;28;20115;-73
2023/01/25 04:29:41;;;;;;;25.45;11.77;;;;;;;;;;5002792;28;20062;-70
2023/01/25 04:32:08;;;;;;;26.75;11.23;;;;;;;;;;4990864;28;20067;-70
2023/01/25 04:34:34;;;;;;;24.15;11.13;;;;;;;;;;4960269;28;20050;-70
2023/01/25 04:37:01;;;;;;;25.85;11.52;;;;;;;;;;4926690;28;20069;-71
2023/01/25 04:39:28;;;;;;;34.63;12.60;;;;;;;;;;4923806;28;20477;-71
2023/01/25 04:49:33;;;;;;;25.90;12.20;;;;;;;;;;5025290;27;20408;-73
2023/01/25 04:52:00;;;;;;;;;;;;;;;;;;4970318;28;20061;-73
2023/01/25 04:54:26;;;;;;;23.00;9.82;;;;;;;;;;5007047;28;19932;-73
2023/01/25 04:56:53;;;;;;;25.77;11.63;;;;;;;;;;5000168;28;20069;-74
2023/01/25 04:59:20;;;;;;;25.52;12.15;;;;;;;;;;4935329;28;20046;-73
2023/01/25 05:01:47;;;;;;;26.27;11.43;;;;;;;;;;4912988;28;20298;-71
2023/01/25 05:04:17;;;;;;;25.92;11.57;;;;;;;;;;4967115;28;20053;-75
2023/01/25 05:06:46;;;;;;;30.10;12.82;;;;;;;;;;4966058;28;20234;-72
2023/01/25 05:09:13;;;;;;;28.20;11.77;;;;;;;;;;4953699;28;20061;-72
2023/01/25 05:11:40;;;;;;;28.73;12.10;;;;;;;;;;4977894;28;20059;-72
2023/01/25 05:14:07;;;;;;;30.63;13.40;;;;;;;;;;4947596;28;20136;-75
2023/01/25 05:16:34;;;;;;;26.50;11.73;;;;;;;;;;4964141;28;20081;-75
2023/01/25 05:19:00;;;;;;;30.17;12.98;;;;;;;;;;4980564;28;20075;-75
2023/01/25 05:24:13;;;;;;;29.85;12.73;;;;;;;;;;4974457;28;20045;-74
2023/01/25 05:27:02;;;;;;;29.63;12.02;;;;;;;;;;4963829;28;20145;-73
2023/01/25 05:29:29;;;;;;;24.48;12.05;;;;;;;;;;4944054;28;20117;-72
2023/01/25 05:31:56;;;;;;;23.75;12.07;;;;;;;;;;4955731;28;20143;-74
2023/01/25 05:34:24;;;;;;;29.40;12.30;;;;;;;;;;4956797;28;20073;-71
2023/01/25 05:36:51;;;;;;;27.15;12.80;;;;;;;;;;5020001;28;20049;-73
2023/01/25 05:39:19;;;;;;;28.13;11.50;;;;;;;;;;4988636;28;20054;-70
2023/01/25 05:41:46;;;;;;;24.42;11.30;;;;;;;;;;4990746;28;20045;-71
2023/01/25 05:49:04;;;;;;;28.48;12.93;;;;;;;;;;4855498;29;20061;-74
2023/01/25 05:54:00;;;;;;;28.08;12.05;;;;;;;;;;4842245;28;20137;-72
2023/01/25 05:56:36;;;;;;;26.95;12.20;;;;;;;;;;4935295;28;20116;-73
2023/01/25 05:59:04;;;;;;;31.02;13.55;;;;;;;;;;4950698;28;20047;-74
2023/01/25 06:01:31;;;;;;;30.65;13.57;;;;;;;;;;4936930;28;20077;-72
2023/01/25 06:04:02;;;;;;;25.98;12.05;;;;;;;;;;4965602;28;20117;-74
2023/01/25 06:06:29;;;;;;;31.48;13.55;;;;;;;;;;4962713;28;20136;-73
2023/01/25 06:09:11;;;;;;;29.55;13.15;;;;;;;;;;4983527;28;20131;-71
2023/01/25 06:11:51;;;;;;;29.17;12.88;;;;;;;;;;4956864;28;20113;-74
2023/01/25 06:14:42;;;;;;;27.70;12.50;;;;;;;;;;4885938;28;20050;-71
2023/01/25 06:17:11;;;;;;;27.05;11.35;;;;;;;;;;4880173;28;20055;-71
2023/01/25 06:19:51;;;;;;;26.95;12.30;;;;;;;;;;4911056;28;20053;-71
2023/01/25 06:24:44;;;;;;;27.20;12.63;;;;;;;;;;4851205;28;20057;-70
2023/01/25 06:27:12;;;;;;;29.98;12.77;;;;;;;;;;4950925;28;20058;-72
2023/01/25 06:29:39;;;;;;;28.50;12.52;;;;;;;;;;4914093;28;20052;-71
2023/01/25 06:32:06;;;;;;;29.02;12.18;;;;;;;;;;4986463;28;20050;-71
2023/01/25 06:34:33;;;;;;;32.17;13.27;;;;;;;;;;4928704;28;20057;-71
2023/01/25 06:37:01;;;;;;;28.55;12.90;;;;;;;;;;4970424;28;20054;-71
2023/01/25 06:39:30;;;;;;;27.50;11.50;;;;;;;;;;4950433;28;20058;-71
2023/01/25 06:41:59;;;;;;;30.80;13.63;;;;;;;;;;4964311;28;20141;-73
2023/01/25 06:44:28;;;;;;;29.17;12.93;;;;;;;;;;4940048;28;20057;-71
2023/01/25 06:46:56;;;;;;;30.10;13.27;;;;;;;;;;4963995;28;20061;-71
2023/01/25 06:49:23;;;;;;;28.52;12.93;;;;;;;;;;4958704;28;20245;-70
2023/01/25 06:51:50;;;;;;;30.27;12.85;;;;;;;;;;4959785;28;20131;-72
2023/01/25 06:54:17;;;;;;;28.50;13.35;;;;;;;;;;4942787;28;20050;-73
2023/01/25 06:56:44;;;;;;;31.52;13.02;;;;;;;;;;4972908;28;20053;-73
2023/01/25 06:59:10;;;;;;;30.05;12.57;;;;;;;;;;4984106;28;20046;-73
2023/01/25 07:01:48;;;;;;;29.30;13.38;;;;;;;;;;4996605;28;20064;-75
2023/01/25 07:04:27;;;;;;;31.50;13.13;;;;;;;;;;4856735;28;20160;-71
2023/01/25 07:06:57;;;;;;;30.25;12.73;;;;;;;;;;4852198;29;20060;-73
2023/01/25 07:32:45;;;;;;;27.45;11.13;;;;;;;;;;5067987;27;20409;-68
2023/01/25 07:35:12;;;;;;;27.13;12.43;;;;;;;;;;5055072;28;20056;-69
2023/01/25 07:37:38;;;;;;;33.85;12.98;;;;;;;;;;5006901;28;20071;-70
2023/01/25 07:40:07;;;;;;;27.85;11.73;;;;;;;;;;5034854;28;20064;-69
2023/01/25 07:42:33;;;;;;;;;;;;;;;;;;5067816;28;20052;-69
2023/01/25 07:45:01;;;;;;;27.30;11.00;;;;;;;;;;5000693;28;19924;-69
2023/01/25 07:47:27;;;;;;;31.02;12.48;;;;;;;;;;5024979;28;20049;-70
2023/01/25 07:49:58;;;;;;;32.88;13.60;;;;;;;;;;5050973;28;20060;-71
2023/01/25 07:52:25;;;;;;;33.10;13.32;;;;;;;;;;5028033;28;20121;-68
2023/01/25 07:54:51;;;;;;;30.48;12.48;;;;;;;;;;4971839;28;20059;-69
2023/01/25 07:57:19;;;;;;;29.25;13.15;;;;;;;;;;5024436;28;20130;-70
2023/01/25 07:59:45;;;;;;;33.97;14.65;;;;;;;;;;5018363;28;20056;-69
2023/01/25 08:02:12;;;;;;;30.90;12.98;;;;;;;;;;4996358;28;20045;-69
2023/01/25 08:04:41;;;;;;;30.85;13.15;;;;;;;;;;5013559;28;20068;-67
2023/01/25 08:07:07;;;;;;;;;;;;;;;;;;5010124;28;20061;-69
2023/01/25 08:09:35;;;;;;;32.60;11.85;;;;;;;;;;5035948;28;19929;-70
2023/01/25 08:12:02;;;;;;;29.85;13.00;;;;;;;;;;5018765;28;20056;-68
2023/01/25 08:14:28;;;;;;;33.88;14.30;;;;;;;;;;4993433;28;20060;-70
2023/01/25 08:16:55;;;;;;;27.05;12.15;;;;;;;;;;5031453;28;20062;-70
2023/01/25 08:19:23;;;;;;;31.13;13.68;;;;;;;;;;5023159;28;20192;-68
2023/01/25 08:21:50;;;;;;;29.73;13.63;;;;;;;;;;5048206;28;20037;-69
2023/01/25 08:24:17;;;;;;;33.67;13.85;;;;;;;;;;5018238;28;20087;-71
2023/01/25 08:26:45;;;;;;;32.85;13.45;;;;;;;;;;5026366;28;20135;-68
2023/01/25 08:29:14;;;;;;;30.63;13.50;;;;;;;;;;5041716;28;20067;-68
2023/01/25 08:31:42;;;;;;;28.05;12.20;;;;;;;;;;5029630;28;20052;-71
2023/01/25 08:34:09;;;;;;;31.67;13.77;;;;;;;;;;5007271;28;20140;-68
2023/01/25 08:36:36;;;;;;;33.60;13.60;;;;;;;;;;4979752;28;20146;-70
2023/01/25 08:39:05;;;;;;;35.35;13.63;;;;;;;;;;5019362;28;20049;-68
2023/01/25 08:41:33;;;;;;;29.90;12.57;;;;;;;;;;4981448;28;20048;-68
2023/01/25 08:44:01;;;;;;;32.33;13.10;;;;;;;;;;4967143;28;20069;-69
2023/01/25 08:46:34;;;;;;;33.28;13.82;;;;;;;;;;4993970;28;20058;-70
2023/01/25 08:49:01;;;;;;;32.28;13.75;;;;;;;;;;5015715;28;20053;-68
2023/01/25 08:51:30;;;;;;;36.13;13.98;;;;;;;;;;5014061;28;20140;-69
2023/01/25 08:53:56;;;;;;;33.42;13.45;;;;;;;;;;4980066;28;20056;-70
2023/01/25 08:56:23;;;;;;;33.92;12.95;;;;;;;;;;5043198;28;20057;-69
2023/01/25 08:58:50;;;;;;;32.55;13.20;;;;;;;;;;5018927;28;20052;-69
2023/01/25 09:01:19;;;;;;;33.30;13.30;;;;;;;;;;4994632;28;20051;-68
2023/01/25 09:03:46;;;;;;;;;;;;;;;;;;4968596;28;20129;-69
2023/01/25 09:06:13;;;;;;;32.97;13.15;;;;;;;;;;5011258;28;19960;-69
2023/01/25 09:08:39;;;;;;;32.22;13.35;;;;;;;;;;5015894;28;20054;-68
2023/01/25 09:11:07;;;;;;;34.20;14.45;;;;;;;;;;4998721;28;20084;-69
2023/01/25 09:13:34;;;;;;;31.13;13.23;;;;;;;;;;4982100;28;20057;-70
2023/01/25 09:16:06;;;;;;;30.15;12.60;;;;;;;;;;5017347;28;20053;-68
2023/01/25 09:18:36;;;;;;;35.10;13.50;;;;;;;;;;4991726;28;20109;-67
2023/01/25 09:21:06;;;;;;;34.58;13.70;;;;;;;;;;5006387;28;20061;-70
2023/01/25 09:23:35;;;;;;;31.23;13.75;;;;;;;;;;4979542;28;20110;-72
2023/01/25 09:26:02;;;;;;;34.83;14.15;;;;;;;;;;5009158;28;20080;-68
2023/01/25 09:28:29;;;;;;;31.13;14.00;;;;;;;;;;5012130;28;20049;-70
2023/01/25 09:30:57;;;;;;;31.10;12.60;;;;;;;;;;5015016;28;20081;-69
2023/01/25 09:33:25;;;;;;;35.60;14.52;;;;;;;;;;5019553;28;20061;-68
2023/01/25 09:35:54;;;;;;;36.03;14.13;;;;;;;;;;4997698;28;20057;-68
2023/01/25 09:38:20;;;;;;;33.17;13.68;;;;;;;;;;5035674;28;20066;-70
2023/01/25 09:40:52;;;;;;;30.70;14.13;;;;;;;;;;5028188;28;20058;-68
2023/01/25 09:43:27;;;;;;;30.35;13.23;;;;;;;;;;4988798;28;20056;-71
2023/01/25 09:45:54;;;;;;;31.38;13.18;;;;;;;;;;5018835;28;21426;-68
2023/01/25 09:48:26;;;;;;;34.30;13.70;;;;;;;;;;5029371;28;20049;-69
2023/01/25 09:51:00;;;;;;;32.70;13.65;;;;;;;;;;5053076;28;20049;-68
2023/01/25 09:53:32;;;;;;;33.92;13.55;;;;;;;;;;4964273;28;20057;-76
2023/01/25 09:56:04;;;;;;;36.63;14.25;;;;;;;;;;4970666;28;20049;-74
2023/01/25 09:58:33;;;;;;;33.25;13.65;;;;;;;;;;4978456;28;20049;-75
2023/01/25 10:01:13;;;;;;;34.95;14.63;;;;;;;;;;4980093;28;20267;-72
2023/01/25 10:06:23;;;;;;;33.85;13.73;;;;;;;;;;5027281;27;20454;-76
2023/01/25 10:08:54;;;;;;;34.58;13.93;;;;;;;;;;4973633;28;20065;-73
2023/01/25 10:11:22;;;;;;;37.42;13.55;;;;;;;;;;4950305;28;20084;-75
2023/01/25 10:13:49;;;;;;;;;;;;;;;;;;4906708;28;20054;-73
2023/01/25 10:28:45;;;;;;;39.80;15.45;;;;;;;;;;5032094;27;20546;-75
2023/01/25 10:31:16;;;;;;;36.33;14.00;;;;;;;;;;4942649;28;20064;-75
2023/01/25 10:38:59;;;;;;;37.22;14.73;;;;;;;;;;5043134;27;20453;-71
2023/01/25 10:41:34;;;;;;;34.75;14.73;;;;;;;;;;5001496;28;20055;-78
2023/01/25 10:49:24;;;;;;;35.58;13.75;;;;;;;;;;5067616;27;20417;-77
2023/01/25 10:51:52;;;;;;;35.45;14.05;;;;;;;;;;4932134;28;20146;-76
2023/01/25 12:37:53;;;;;;;39.08;14.10;;;;;;;;;;6145246;22;4078757;-77
2023/01/25 12:40:24;;;;;;;37.70;14.63;;;;;;;;;;6152345;22;20124;-75
2023/01/25 12:42:54;;;;;;;36.42;15.30;;;;;;;;;;6070493;23;20025;-74
2023/01/25 12:57:59;;;;;;;41.10;15.32;;;;;;;;;;4989772;27;20443;-71
2023/01/25 13:00:35;;;;;;;33.30;13.27;;;;;;;;;;4976207;28;20070;-71
2023/01/25 13:03:16;;;;;;;37.22;14.38;;;;;;;;;;4948310;28;20065;-74
2023/01/25 13:08:33;;;;;;;42.78;14.80;;;;;;;;;;5072272;27;20494;-74
2023/01/25 13:11:08;;;;;;;36.10;13.25;;;;;;;;;;4961400;28;20069;-77
2023/01/25 13:29:35;;;;;;;37.97;12.68;;;;;;;;;;6017259;22;3420932;-79
2023/01/25 14:08:45;;;;;;;40.15;15.30;;;;;;;;;;6136802;22;2399770;-74
2023/01/25 14:11:18;;;;;;;42.67;15.48;;;;;;;;;;6168598;23;20177;-74
2023/01/25 14:13:55;;;;;;;40.53;14.98;;;;;;;;;;6116032;23;20055;-72
2023/01/25 14:16:28;;;;;;;39.30;14.70;;;;;;;;;;6030101;23;20026;-71
2023/01/25 14:57:37;;;;;;;44.80;12.95;;;;;;;;;;4959133;27;20437;-74
2023/01/25 15:00:19;;;;;;;42.83;14.65;;;;;;;;;;4966101;28;20081;-74
2023/01/25 15:02:53;;;;;;;39.65;15.95;;;;;;;;;;4969028;28;20054;-75
2023/01/25 15:05:22;;;;;;;44.53;16.30;;;;;;;;;;4973969;28;20045;-75
2023/01/25 15:48:31;;;;;;;61.60;24.53;;;;;;;;;;6130073;22;1380492;-74
2023/01/25 15:50:58;;;;;;;48.15;17.55;;;;;;;;;;6143124;23;20039;-75
2023/01/25 15:53:26;;;;;;;50.88;15.63;;;;;;;;;;6167470;23;20079;-74
2023/01/25 15:55:56;;;;;;;46.20;17.23;;;;;;;;;;6131042;23;20032;-74
2023/01/25 15:58:24;;;;;;;46.28;15.35;;;;;;;;;;6135581;23;20099;-73
2023/01/25 16:00:58;;;;;;;42.85;15.70;;;;;;;;;;6139281;23;20028;-75
2023/01/25 16:03:34;;;;;;;50.10;16.52;;;;;;;;;;6148353;23;20028;-73
2023/01/25 16:06:04;;;;;;;39.92;14.68;;;;;;;;;;6132590;23;20032;-74
2023/01/25 16:08:34;;;;;;;46.97;16.83;;;;;;;;;;6113474;23;20031;-74
2023/01/25 16:11:00;;;;;;;44.60;15.52;;;;;;;;;;6154858;23;20048;-72
2023/01/25 16:13:28;;;;;;;50.67;16.77;;;;;;;;;;6155904;23;20039;-73
2023/01/25 16:15:56;;;;;;;44.63;15.65;;;;;;;;;;6072567;23;20133;-74
2023/01/25 16:18:23;;;;;;;44.00;15.05;;;;;;;;;;6091486;23;20033;-75
2023/01/25 16:20:52;;;;;;;51.45;17.23;;;;;;;;;;6116670;23;20184;-74
2023/01/25 16:23:18;;;;;;;44.20;15.60;;;;;;;;;;6144559;23;20053;-74
2023/01/25 16:25:47;;;;;;;49.30;15.48;;;;;;;;;;6100207;23;20025;-74
2023/01/25 16:28:14;;;;;;;48.65;15.88;;;;;;;;;;6125052;23;20049;-73
2023/01/25 16:30:43;;;;;;;46.63;16.38;;;;;;;;;;6113434;23;20099;-74
2023/01/25 16:33:09;;;;;;;53.28;16.45;;;;;;;;;;6136989;23;20048;-72
2023/01/25 16:35:40;;;;;;;51.75;16.52;;;;;;;;;;6138347;23;20029;-73
2023/01/25 16:38:10;;;;;;;46.35;16.35;;;;;;;;;;6112497;23;20107;-75
2023/01/25 16:40:38;;;;;;;46.17;16.90;;;;;;;;;;6154343;23;20058;-76
2023/01/25 16:43:05;;;;;;;45.65;17.10;;;;;;;;;;6148292;23;20021;-71
2023/01/25 16:45:32;;;;;;;45.25;16.10;;;;;;;;;;6172707;23;20143;-69
2023/01/25 16:48:00;;;;;;;49.58;17.63;;;;;;;;;;6134474;23;20025;-69
2023/01/25 16:50:27;;;;;;;46.55;17.45;;;;;;;;;;6165052;23;20021;-69
2023/01/25 16:52:55;;;;;;;52.70;17.65;;;;;;;;;;6137248;23;20107;-69
2023/01/25 16:55:23;;;;;;;50.40;16.95;;;;;;;;;;6167199;23;20021;-69
2023/01/25 16:57:50;;;;;;;46.45;15.30;;;;;;;;;;6153214;23;20029;-69
2023/01/25 17:00:17;;;;;;;49.50;17.00;;;;;;;;;;6143497;23;20025;-69
2023/01/25 17:02:44;;;;;;;49.97;15.73;;;;;;;;;;6169839;23;20033;-70
2023/01/25 17:05:11;;;;;;;44.83;15.73;;;;;;;;;;6152507;23;20083;-69
2023/01/25 17:07:38;;;;;;;46.83;16.17;;;;;;;;;;6149821;23;20101;-70
2023/01/25 17:10:07;;;;;;;43.10;15.95;;;;;;;;;;6141519;23;20029;-70
2023/01/25 17:12:33;;;;;;;;;;;;;;;;;;6144133;23;20020;-70
2023/01/25 17:15:01;;;;;;;44.47;14.45;;;;;;;;;;6163888;23;19916;-70
2023/01/25 17:17:33;;;;;;;45.10;14.88;;;;;;;;;;6155277;23;20029;-70
2023/01/25 17:20:00;;;;;;;44.30;16.05;;;;;;;;;;6156581;23;20105;-70
2023/01/25 17:22:27;;;;;;;45.20;15.20;;;;;;;;;;6155231;23;20079;-69
2023/01/25 17:24:55;;;;;;;50.10;15.82;;;;;;;;;;6135354;23;20021;-70
2023/01/25 17:27:22;;;;;;;47.20;15.95;;;;;;;;;;6119995;23;20028;-69
2023/01/25 17:29:49;;;;;;;44.85;15.52;;;;;;;;;;6154848;23;20116;-70
2023/01/25 17:32:17;;;;;;;46.28;16.42;;;;;;;;;;6143661;23;20024;-69
2023/01/25 17:34:44;;;;;;;50.13;14.80;;;;;;;;;;6130534;23;20029;-71
2023/01/25 17:37:10;;;;;;;46.22;15.75;;;;;;;;;;6137665;23;20029;-70
2023/01/25 17:39:38;;;;;;;46.70;16.10;;;;;;;;;;6157756;23;20029;-71
2023/01/25 17:42:05;;;;;;;45.90;17.08;;;;;;;;;;6166247;23;20045;-71
2023/01/25 17:44:32;;;;;;;48.77;15.63;;;;;;;;;;6138432;23;20018;-70
2023/01/25 17:46:59;;;;;;;47.22;15.73;;;;;;;;;;6113961;23;20029;-70
2023/01/25 17:49:30;;;;;;;45.28;14.18;;;;;;;;;;6141915;23;20056;-70
2023/01/25 17:51:56;;;;;;;47.17;16.65;;;;;;;;;;6146276;23;20047;-71
2023/01/25 17:54:23;;;;;;;51.25;16.50;;;;;;;;;;6142207;23;20028;-71
2023/01/25 17:56:50;;;;;;;45.10;14.23;;;;;;;;;;6162343;23;20025;-70
2023/01/25 17:59:17;;;;;;;44.22;15.00;;;;;;;;;;6117393;23;20025;-71
2023/01/25 18:01:44;;;;;;;47.83;16.02;;;;;;;;;;6126971;23;20025;-71
2023/01/25 18:04:16;;;;;;;45.45;16.02;;;;;;;;;;6112773;23;20036;-71
2023/01/25 18:06:44;;;;;;;50.05;15.80;;;;;;;;;;6102934;23;20024;-71
2023/01/25 18:09:11;;;;;;;49.20;15.25;;;;;;;;;;6139926;23;20029;-70
2023/01/25 18:11:39;;;;;;;52.47;16.27;;;;;;;;;;6121353;23;20017;-72
2023/01/25 18:14:08;;;;;;;46.13;15.10;;;;;;;;;;6140511;23;20115;-70
2023/01/25 18:16:36;;;;;;;48.58;14.77;;;;;;;;;;6134204;23;20018;-70
2023/01/25 18:19:02;;;;;;;43.42;15.07;;;;;;;;;;6140097;23;20055;-70
2023/01/25 18:21:30;;;;;;;42.97;14.77;;;;;;;;;;6144706;23;20025;-70
2023/01/25 18:24:00;;;;;;;44.90;15.55;;;;;;;;;;6135351;23;20052;-70
2023/01/25 18:26:28;;;;;;;42.75;14.52;;;;;;;;;;6133488;23;20021;-70
2023/01/25 18:28:58;;;;;;;46.83;15.75;;;;;;;;;;6161854;23;20033;-70
2023/01/25 18:31:25;;;;;;;46.20;15.23;;;;;;;;;;6139508;23;20025;-70
2023/01/25 18:33:55;;;;;;;50.80;16.45;;;;;;;;;;6131140;23;20032;-69
2023/01/25 18:36:21;;;;;;;45.50;14.93;;;;;;;;;;6164653;23;20021;-70
2023/01/25 18:38:48;;;;;;;46.60;14.35;;;;;;;;;;6128880;23;20032;-70
2023/01/25 18:41:16;;;;;;;48.40;14.60;;;;;;;;;;6168755;23;20064;-69
2023/01/25 18:43:43;;;;;;;44.72;15.13;;;;;;;;;;6130850;23;20021;-69
2023/01/25 18:46:10;;;;;;;48.38;16.52;;;;;;;;;;6168526;23;20075;-70
2023/01/25 18:48:37;;;;;;;46.42;15.93;;;;;;;;;;6122435;23;20124;-70
2023/01/25 18:51:05;;;;;;;44.85;15.55;;;;;;;;;;6143203;23;20053;-70
2023/01/25 18:53:33;;;;;;;53.65;16.13;;;;;;;;;;6136333;23;20021;-70
2023/01/25 18:56:01;;;;;;;47.22;14.60;;;;;;;;;;6138727;23;20911;-69
2023/01/25 18:58:30;;;;;;;47.50;15.73;;;;;;;;;;6135979;23;20028;-70
2023/01/25 19:01:01;;;;;;;53.38;16.02;;;;;;;;;;6142752;23;20025;-69
2023/01/25 19:03:29;;;;;;;45.65;15.20;;;;;;;;;;6160181;23;20064;-70
2023/01/25 19:05:56;;;;;;;42.83;14.45;;;;;;;;;;6146418;23;20020;-69
2023/01/25 19:08:24;;;;;;;47.75;15.13;;;;;;;;;;6121913;23;20022;-69
2023/01/25 19:10:51;;;;;;;47.00;15.80;;;;;;;;;;6133460;23;20026;-70
2023/01/25 19:13:17;;;;;;;47.88;15.65;;;;;;;;;;6133495;23;20369;-69
2023/01/25 19:15:45;;;;;;;52.30;15.75;;;;;;;;;;6128843;23;20060;-69
2023/01/25 19:18:12;;;;;;;53.58;16.42;;;;;;;;;;6139702;23;20025;-69
2023/01/25 19:20:39;;;;;;;53.85;17.15;;;;;;;;;;6124368;23;20025;-69
2023/01/25 19:23:07;;;;;;;52.65;14.85;;;;;;;;;;6124658;23;20024;-68
2023/01/25 19:25:34;;;;;;;52.37;16.83;;;;;;;;;;6130136;23;20025;-69
2023/01/25 19:28:01;;;;;;;55.60;16.88;;;;;;;;;;6147350;23;20112;-69
2023/01/25 19:30:28;;;;;;;53.15;16.20;;;;;;;;;;6164967;23;20020;-69
2023/01/25 19:32:56;;;;;;;57.83;17.23;;;;;;;;;;6166089;23;20021;-71
2023/01/25 19:35:23;;;;;;;56.83;16.90;;;;;;;;;;6139822;23;20084;-69
2023/01/25 19:37:50;;;;;;;56.17;17.15;;;;;;;;;;6119049;23;20036;-69
2023/01/25 19:40:17;;;;;;;54.40;16.33;;;;;;;;;;6139005;23;20017;-69
2023/01/25 19:42:44;;;;;;;58.17;17.40;;;;;;;;;;6166481;23;20025;-68
2023/01/25 19:45:11;;;;;;;54.05;16.98;;;;;;;;;;6139956;23;20029;-68